createdAt,value
2023-10-20T00:03:10.955Z,28.40
2023-10-20T00:07:13.161Z,26.23
2023-10-20T00:11:15.376Z,30.88
2023-10-20T00:15:20.889Z,26.02
2023-10-20T00:19:23.216Z,26.10
2023-10-20T00:23:25.587Z,28.25
2023-10-20T00:27:27.691Z,25.17
2023-10-20T00:31:31.215Z,24.45
2023-10-20T00:35:33.383Z,27.40
2023-10-20T00:39:36.351Z,24.45
2023-10-20T00:43:39.401Z,28.63
2023-10-20T00:47:42.516Z,26.15
2023-10-20T00:51:44.794Z,28.38
2023-10-20T00:55:47.403Z,24.40
2023-10-20T00:59:49.595Z,25.15
2023-10-20T01:03:51.996Z,25.45
2023-10-20T01:07:54.447Z,31.52
2023-10-20T01:11:58.116Z,29.60
2023-10-20T01:16:00.338Z,29.67
2023-10-20T01:20:07.531Z,25.10
2023-10-20T01:24:11.212Z,21.17
2023-10-20T01:28:14.461Z,19.55
2023-10-20T01:32:16.558Z,19.77
2023-10-20T01:36:19.005Z,18.83
2023-10-20T01:40:21.057Z,19.50
2023-10-20T01:44:23.504Z,20.98
2023-10-20T01:48:25.636Z,19.08
2023-10-20T01:52:27.919Z,19.08
2023-10-20T01:56:30.202Z,17.30
2023-10-20T02:00:32.507Z,19.65
2023-10-20T02:04:34.800Z,16.85
2023-10-20T02:08:38.969Z,16.60
2023-10-20T02:12:41.108Z,16.02
2023-10-20T02:16:43.247Z,15.35
2023-10-20T02:20:45.317Z,17.67
2023-10-20T02:24:47.818Z,14.38
2023-10-20T02:28:49.725Z,14.57
2023-10-20T02:32:51.943Z,14.05
2023-10-20T02:36:54.164Z,11.90
2023-10-20T02:40:57.732Z,17.92
2023-10-20T02:45:00.280Z,12.73
2023-10-20T02:49:02.156Z,14.55
2023-10-20T02:53:04.746Z,11.75
2023-10-20T02:57:06.888Z,11.68
2023-10-20T03:01:10.520Z,11.38
2023-10-20T03:05:13.169Z,12.13
2023-10-20T03:09:15.303Z,12.98
2023-10-20T03:13:18.476Z,12.70
2023-10-20T03:17:21.267Z,12.75
2023-10-20T03:21:24.572Z,10.57
2023-10-20T03:25:27.388Z,10.80
2023-10-20T03:29:29.563Z,10.45
2023-10-20T03:33:33.779Z,11.15
2023-10-20T03:37:35.798Z,10.38
2023-10-20T03:41:38.047Z,10.75
2023-10-20T03:45:49.812Z,10.82
2023-10-20T03:49:52.903Z,10.50
2023-10-20T03:53:56.254Z,10.88
2023-10-20T03:57:58.280Z,11.32
2023-10-20T04:02:00.269Z,10.52
2023-10-20T04:06:09.182Z,10.10
2023-10-20T04:10:11.262Z,11.30
2023-10-20T04:14:13.690Z,9.82
2023-10-20T04:18:17.042Z,8.75
2023-10-20T04:22:19.094Z,8.75
2023-10-20T04:26:23.981Z,9.60
2023-10-20T04:30:44.975Z,9.57
2023-10-20T04:35:18.927Z,12.38
2023-10-20T04:39:39.144Z,8.20
2023-10-20T04:43:43.747Z,8.13
2023-10-20T04:48:05.589Z,6.25
2023-10-20T04:52:26.940Z,7.82
2023-10-20T04:56:56.860Z,6.72
2023-10-20T05:01:06.065Z,6.10
2023-10-20T05:05:18.084Z,6.18
2023-10-20T05:09:20.322Z,6.03
2023-10-20T05:13:23.445Z,6.30
2023-10-20T05:17:26.241Z,5.22
2023-10-20T05:21:29.294Z,4.30
2023-10-20T05:25:31.332Z,3.70
2023-10-20T05:29:33.399Z,3.17
2023-10-20T05:33:35.524Z,3.88
2023-10-20T05:37:37.562Z,3.38
2023-10-20T05:41:39.518Z,4.00
2023-10-20T05:45:42.320Z,4.22
2023-10-20T05:49:44.382Z,2.72
2023-10-20T05:53:46.561Z,3.63
2023-10-20T05:57:48.867Z,3.20
2023-10-20T06:01:50.925Z,3.50
2023-10-20T06:05:52.895Z,3.65
2023-10-20T06:09:55.397Z,4.82
2023-10-20T06:13:57.489Z,3.90
2023-10-20T06:17:59.548Z,3.72
2023-10-20T06:22:01.767Z,4.30
2023-10-20T06:26:03.925Z,3.65
2023-10-20T06:30:15.612Z,3.22
2023-10-20T06:34:26.422Z,3.80
2023-10-20T06:38:32.127Z,3.67
2023-10-20T06:42:34.406Z,3.90
2023-10-20T06:46:36.456Z,4.15
2023-10-20T06:50:38.686Z,3.95
2023-10-20T06:54:40.751Z,3.75
2023-10-20T06:58:42.979Z,4.57
2023-10-20T07:02:45.170Z,3.67
2023-10-20T07:06:47.351Z,5.40
2023-10-20T07:10:51.488Z,4.05
2023-10-20T07:14:53.730Z,4.80
2023-10-20T07:18:55.867Z,4.70
2023-10-20T07:22:58.576Z,4.65
2023-10-20T07:27:02.791Z,4.25
2023-10-20T07:31:15.160Z,4.30
2023-10-20T07:35:17.461Z,4.90
2023-10-20T07:39:19.498Z,4.78
2023-10-20T07:43:22.964Z,5.80
2023-10-20T07:47:25.634Z,4.55
2023-10-20T07:51:28.083Z,4.40
2023-10-20T07:55:30.319Z,5.47
2023-10-20T07:59:32.880Z,5.18
2023-10-20T08:03:35.386Z,5.38
2023-10-20T08:07:39.934Z,5.97
2023-10-20T08:11:43.416Z,6.57
2023-10-20T08:15:45.757Z,6.97
2023-10-20T08:19:48.087Z,6.68
2023-10-20T08:23:50.191Z,6.75
2023-10-20T08:27:52.536Z,6.05
2023-10-20T08:31:54.604Z,6.78
2023-10-20T08:35:56.861Z,6.07
2023-10-20T08:39:58.859Z,6.93
2023-10-20T08:44:02.404Z,5.45
2023-10-20T08:48:07.161Z,7.72
2023-10-20T08:52:11.698Z,8.00
2023-10-20T08:56:14.319Z,6.35
2023-10-20T09:00:23.374Z,6.72
2023-10-20T09:04:27.346Z,7.43
2023-10-20T09:08:29.678Z,6.90
2023-10-20T09:12:33.302Z,7.15
2023-10-20T09:16:35.817Z,7.32
2023-10-20T09:20:38.214Z,6.90
2023-10-20T09:24:42.503Z,8.65
2023-10-20T09:28:49.386Z,7.15
2023-10-20T09:32:51.376Z,7.20
2023-10-20T09:36:54.386Z,6.90
2023-10-20T09:41:09.111Z,6.45
2023-10-20T09:45:18.980Z,7.30
2023-10-20T09:49:24.398Z,6.75
2023-10-20T09:53:27.263Z,7.75
2023-10-20T09:57:29.678Z,6.38
2023-10-20T10:01:32.272Z,6.32
2023-10-20T10:05:34.892Z,6.95
2023-10-20T10:09:39.064Z,7.40
2023-10-20T10:13:41.200Z,7.95
2023-10-20T10:17:47.928Z,8.43
2023-10-20T10:21:54.539Z,8.02
2023-10-20T10:25:56.713Z,7.65
2023-10-20T10:30:01.528Z,7.78
2023-10-20T10:34:07.342Z,7.03
2023-10-20T10:38:23.528Z,7.68
2023-10-20T10:42:28.837Z,9.02
2023-10-20T10:46:36.107Z,8.45
2023-10-20T10:50:43.140Z,7.00
2023-10-20T10:54:45.380Z,7.97
2023-10-20T10:58:47.559Z,7.55
2023-10-20T11:02:50.272Z,7.63
2023-10-20T11:06:52.176Z,7.22
2023-10-20T11:10:54.164Z,8.52
2023-10-20T11:15:04.986Z,9.23
2023-10-20T11:19:07.158Z,9.35
2023-10-20T11:23:10.436Z,7.95
2023-10-20T11:27:14.021Z,9.65
2023-10-20T11:31:16.449Z,7.90
2023-10-20T11:35:18.660Z,8.30
2023-10-20T11:39:25.855Z,9.40
2023-10-20T11:43:27.999Z,9.52
2023-10-20T11:47:30.054Z,8.40
2023-10-20T11:51:32.423Z,10.65
2023-10-20T11:55:34.664Z,9.48
2023-10-20T11:59:36.858Z,10.32
2023-10-20T12:03:39.743Z,9.88
2023-10-20T12:07:41.854Z,12.30
2023-10-20T12:11:44.299Z,10.05
2023-10-20T12:15:46.354Z,10.80
2023-10-20T12:19:50.303Z,11.10
2023-10-20T12:23:52.532Z,12.60
2023-10-20T12:27:54.564Z,12.10
2023-10-20T12:31:58.000Z,9.27
2023-10-20T12:36:00.395Z,10.90
2023-10-20T12:40:02.612Z,10.10
2023-10-20T12:44:05.458Z,12.43
2023-10-20T12:48:08.245Z,11.60
2023-10-20T12:52:10.267Z,11.45
2023-10-20T12:56:12.264Z,13.02
2023-10-20T13:00:14.814Z,13.23
2023-10-20T13:04:17.899Z,17.60
2023-10-20T13:08:20.025Z,13.13
2023-10-20T13:12:23.474Z,13.27
2023-10-20T13:16:25.466Z,12.50
2023-10-20T13:20:27.842Z,14.02
2023-10-20T13:24:29.866Z,11.18
2023-10-20T13:28:35.763Z,12.80
2023-10-20T13:32:37.788Z,11.98
2023-10-20T13:36:39.953Z,11.57
2023-10-20T13:40:42.041Z,11.88
2023-10-20T13:44:44.362Z,12.23
2023-10-20T13:48:46.683Z,17.60
2023-10-20T13:52:48.804Z,12.73
2023-10-20T13:56:50.890Z,11.40
2023-10-20T14:00:53.059Z,12.15
2023-10-20T14:04:55.073Z,10.57
2023-10-20T14:08:57.206Z,9.57
2023-10-20T14:12:59.424Z,11.95
2023-10-20T14:17:07.656Z,11.82
2023-10-20T14:21:09.941Z,14.70
2023-10-20T14:25:12.276Z,10.95
2023-10-20T14:29:17.134Z,12.82
2023-10-20T14:33:19.306Z,12.05
2023-10-20T14:37:21.570Z,10.65
2023-10-20T14:41:24.101Z,11.23
2023-10-20T14:45:26.132Z,11.90
2023-10-20T14:49:27.874Z,13.95
2023-10-20T14:53:29.933Z,11.15
2023-10-20T14:57:32.354Z,11.60
2023-10-20T15:01:34.622Z,12.77
2023-10-20T15:05:39.165Z,11.48
2023-10-20T15:09:41.155Z,9.80
2023-10-20T15:13:44.599Z,10.75
2023-10-20T15:17:46.941Z,10.95
2023-10-20T15:21:48.957Z,10.57
2023-10-20T15:25:50.977Z,10.65
2023-10-20T15:29:53.198Z,10.35
2023-10-20T15:33:55.446Z,10.45
2023-10-20T15:37:58.338Z,17.02
2023-10-20T15:42:00.459Z,11.90
2023-10-20T15:46:07.914Z,9.05
2023-10-20T15:50:13.361Z,10.70
2023-10-20T15:54:19.901Z,9.85
2023-10-20T16:02:26.177Z,10.05
2023-10-20T16:06:28.308Z,12.18
2023-10-20T16:10:30.494Z,10.63
2023-10-20T16:14:32.535Z,11.80
2023-10-20T16:18:35.234Z,11.18
2023-10-20T16:22:37.296Z,10.38
2023-10-20T16:26:39.474Z,8.40
2023-10-20T16:30:41.569Z,12.85
2023-10-20T16:34:43.632Z,10.80
2023-10-20T16:38:45.882Z,9.25
2023-10-20T16:42:48.190Z,9.75
2023-10-20T16:46:51.054Z,9.65
2023-10-20T16:50:59.682Z,9.30
2023-10-20T16:55:01.899Z,8.88
2023-10-20T16:59:04.178Z,9.60
2023-10-20T17:03:07.075Z,9.27
2023-10-20T17:07:09.627Z,8.63
2023-10-20T17:11:12.360Z,12.73
2023-10-20T17:15:14.811Z,9.43
2023-10-20T17:19:16.895Z,9.18
2023-10-20T17:23:19.111Z,10.38
2023-10-20T17:27:21.234Z,10.77
2023-10-20T17:31:23.507Z,8.40
2023-10-20T17:35:25.521Z,8.18
2023-10-20T17:39:27.700Z,9.00
2023-10-20T17:43:30.471Z,8.60
2023-10-20T17:47:33.208Z,9.50
2023-10-20T17:51:36.074Z,11.45
2023-10-20T17:55:39.897Z,8.57
2023-10-20T17:59:41.968Z,9.05
2023-10-20T18:03:44.682Z,10.02
2023-10-20T18:07:46.934Z,8.75
2023-10-20T18:11:49.116Z,8.52
2023-10-20T18:15:51.204Z,7.22
2023-10-20T18:19:53.476Z,8.75
2023-10-20T18:23:59.156Z,9.00
2023-10-20T18:28:01.976Z,8.82
2023-10-20T18:32:04.542Z,7.25
2023-10-20T18:36:07.245Z,7.40
2023-10-20T18:40:09.739Z,8.30
2023-10-20T18:44:11.927Z,7.78
2023-10-20T18:48:14.184Z,6.78
2023-10-20T18:52:16.456Z,6.05
2023-10-20T18:56:18.579Z,6.50
2023-10-20T19:00:20.913Z,8.75
2023-10-20T19:04:23.145Z,7.18
2023-10-20T19:08:25.660Z,7.50
2023-10-20T19:12:27.737Z,6.78
2023-10-20T19:16:34.214Z,7.28
2023-10-20T19:20:37.033Z,7.85
2023-10-20T19:24:39.257Z,6.00
2023-10-20T19:28:42.267Z,6.15
2023-10-20T19:32:44.644Z,6.43
2023-10-20T19:36:46.868Z,6.55
2023-10-20T19:40:49.045Z,6.10
2023-10-20T19:44:51.152Z,7.57
2023-10-20T19:48:53.425Z,8.23
2023-10-20T19:52:55.495Z,6.75
2023-10-20T19:56:57.740Z,8.57
2023-10-20T20:01:01.748Z,7.05
2023-10-20T20:05:06.292Z,6.90
2023-10-20T20:09:09.199Z,6.93
2023-10-20T20:13:11.471Z,7.03
2023-10-20T20:17:13.545Z,9.50
2023-10-20T20:21:15.676Z,6.82
2023-10-20T20:25:17.872Z,8.38
2023-10-20T20:29:19.974Z,7.82
2023-10-20T20:33:22.150Z,9.10
2023-10-20T20:37:24.366Z,8.25
2023-10-20T20:41:26.267Z,9.25
2023-10-20T20:45:28.394Z,8.60
2023-10-20T20:49:31.501Z,8.77
2023-10-20T20:53:33.618Z,7.55
2023-10-20T20:57:35.614Z,9.30
2023-10-20T21:01:39.104Z,10.48
2023-10-20T21:05:41.194Z,9.75
2023-10-20T21:09:44.320Z,10.30
2023-10-20T21:13:46.387Z,9.93
2023-10-20T21:17:48.624Z,12.18
2023-10-20T21:21:50.624Z,12.63
2023-10-20T21:25:52.933Z,11.07
2023-10-20T21:29:55.070Z,10.63
2023-10-20T21:33:57.380Z,10.10
2023-10-20T21:37:59.437Z,10.98
2023-10-20T21:42:04.141Z,14.00
2023-10-20T21:46:08.246Z,12.13
2023-10-20T21:50:10.677Z,10.98
2023-10-20T21:54:12.793Z,11.85
2023-10-20T21:58:14.968Z,10.93
2023-10-20T22:02:16.658Z,11.65
2023-10-20T22:06:19.142Z,11.63
2023-10-20T22:10:21.182Z,13.15
2023-10-20T22:14:23.327Z,12.38
2023-10-20T22:18:25.463Z,13.13
2023-10-20T22:22:27.702Z,13.38
2023-10-20T22:26:30.114Z,12.25
2023-10-20T22:30:33.045Z,14.65
2023-10-20T22:34:35.115Z,12.98
2023-10-20T22:38:37.282Z,12.18
2023-10-20T22:42:39.430Z,12.43
2023-10-20T22:46:41.558Z,13.55
2023-10-20T22:50:43.228Z,14.18
2023-10-20T22:54:45.228Z,12.50
2023-10-20T22:58:47.520Z,11.70
2023-10-20T23:02:49.936Z,12.88
2023-10-20T23:06:53.715Z,15.20
2023-10-20T23:10:56.769Z,14.70
2023-10-20T23:14:59.400Z,15.80
2023-10-20T23:19:01.642Z,14.63
2023-10-20T23:23:05.026Z,17.48
2023-10-20T23:27:07.318Z,14.15
2023-10-20T23:31:09.379Z,15.52
2023-10-20T23:35:11.238Z,15.95
2023-10-20T23:39:13.340Z,16.80
2023-10-20T23:43:15.496Z,19.45
2023-10-20T23:47:17.708Z,15.65
2023-10-20T23:51:20.694Z,19.23
2023-10-20T23:55:26.346Z,16.67
2023-10-20T23:59:28.536Z,19.85
